createdAt,value
2017-09-26T00:02:27.202Z,10.17
2017-09-26T00:04:55.474Z,10.10
2017-09-26T00:07:23.748Z,10.40
2017-09-26T00:09:52.040Z,9.77
2017-09-26T00:12:21.132Z,9.17
2017-09-26T00:14:49.378Z,9.50
2017-09-26T00:17:18.411Z,8.33
2017-09-26T00:19:46.660Z,10.33
2017-09-26T00:22:14.919Z,9.67
2017-09-26T00:24:43.946Z,10.13
2017-09-26T00:27:12.217Z,10.13
2017-09-26T00:29:41.244Z,9.97
2017-09-26T00:32:09.505Z,9.90
2017-09-26T00:34:37.756Z,9.83
2017-09-26T00:37:06.790Z,9.53
2017-09-26T00:39:35.039Z,10.40
2017-09-26T00:42:04.181Z,9.00
2017-09-26T00:44:32.465Z,9.67
2017-09-26T00:47:00.735Z,9.53
2017-09-26T00:49:28.979Z,10.60
2017-09-26T00:51:58.019Z,10.00
2017-09-26T00:54:26.268Z,11.33
2017-09-26T00:56:55.296Z,11.00
2017-09-26T00:59:23.560Z,10.10
2017-09-26T01:01:51.835Z,10.53
2017-09-26T01:04:20.859Z,11.17
2017-09-26T01:06:59.043Z,10.20
2017-09-26T01:09:28.055Z,10.73
2017-09-26T01:11:56.314Z,11.30
2017-09-26T01:14:25.339Z,11.27
2017-09-26T01:16:53.592Z,11.77
2017-09-26T01:19:22.614Z,10.97
2017-09-26T01:21:50.882Z,10.73
2017-09-26T01:24:19.910Z,9.70
2017-09-26T01:26:48.150Z,11.23
2017-09-26T01:29:17.187Z,10.07
2017-09-26T01:31:45.440Z,10.80
2017-09-26T01:34:14.566Z,11.40
2017-09-26T01:36:42.828Z,12.13
2017-09-26T01:39:11.104Z,10.73
2017-09-26T01:41:40.117Z,11.40
2017-09-26T01:44:08.409Z,11.97
2017-09-26T01:46:36.717Z,12.57
2017-09-26T01:49:04.976Z,11.20
2017-09-26T01:51:33.227Z,12.97
2017-09-26T01:54:01.576Z,12.40
2017-09-26T01:56:31.780Z,12.00
2017-09-26T01:59:06.057Z,12.63
2017-09-26T02:01:35.072Z,12.90
2017-09-26T02:04:03.338Z,12.70
2017-09-26T02:06:31.656Z,12.57
2017-09-26T02:08:59.951Z,12.43
2017-09-26T02:11:28.221Z,13.90
2017-09-26T02:13:56.595Z,14.17
2017-09-26T02:16:24.866Z,15.63
2017-09-26T02:18:53.116Z,14.00
2017-09-26T02:21:22.151Z,14.50
2017-09-26T02:23:50.411Z,14.93
2017-09-26T02:26:18.674Z,14.90
2017-09-26T02:28:47.689Z,14.10
2017-09-26T02:31:15.964Z,14.07
2017-09-26T02:33:44.222Z,15.83
2017-09-26T02:36:13.264Z,15.30
2017-09-26T02:38:41.511Z,14.27
2017-09-26T02:41:10.540Z,14.60
2017-09-26T02:43:38.801Z,14.50
2017-09-26T02:46:07.063Z,14.57
2017-09-26T02:48:36.080Z,16.40
2017-09-26T02:51:04.395Z,15.30
2017-09-26T02:53:32.628Z,16.00
2017-09-26T02:56:01.768Z,14.80
2017-09-26T02:58:30.052Z,14.03
2017-09-26T03:00:58.344Z,16.07
2017-09-26T03:03:26.595Z,14.17
2017-09-26T03:05:54.899Z,15.67
2017-09-26T03:08:23.175Z,16.10
2017-09-26T03:10:51.461Z,16.23
2017-09-26T03:13:19.714Z,15.67
2017-09-26T03:15:48.011Z,15.13
2017-09-26T03:18:16.304Z,15.67
2017-09-26T03:20:44.548Z,15.03
2017-09-26T03:23:12.936Z,15.43
2017-09-26T03:25:41.235Z,15.23
2017-09-26T03:28:09.507Z,15.90
2017-09-26T03:30:37.770Z,16.20
2017-09-26T03:33:06.034Z,16.00
2017-09-26T03:35:35.050Z,16.70
2017-09-26T03:38:03.310Z,16.50
2017-09-26T03:40:32.357Z,15.97
2017-09-26T03:43:00.619Z,15.30
2017-09-26T03:45:28.870Z,17.57
2017-09-26T03:47:57.897Z,18.80
2017-09-26T03:50:26.195Z,15.37
2017-09-26T03:52:54.461Z,16.13
2017-09-26T03:55:22.782Z,15.70
2017-09-26T03:57:51.055Z,17.50
2017-09-26T04:00:19.310Z,16.23
2017-09-26T04:02:47.579Z,18.43
2017-09-26T04:05:15.834Z,16.20
2017-09-26T04:07:44.855Z,16.53
2017-09-26T04:10:13.134Z,16.90
2017-09-26T04:12:41.408Z,16.07
2017-09-26T04:15:10.469Z,15.27
2017-09-26T04:17:38.762Z,15.40
2017-09-26T04:20:08.539Z,14.57
2017-09-26T04:22:36.801Z,16.17
2017-09-26T04:25:05.934Z,14.20
2017-09-26T04:27:34.219Z,15.93
2017-09-26T04:30:02.481Z,14.60
2017-09-26T04:32:30.804Z,14.20
2017-09-26T04:34:59.043Z,15.93
2017-09-26T04:37:27.322Z,14.80
2017-09-26T04:39:55.601Z,14.80
2017-09-26T04:42:23.850Z,14.77
2017-09-26T04:44:52.104Z,14.00
2017-09-26T04:47:21.145Z,14.27
2017-09-26T04:49:49.409Z,13.63
2017-09-26T04:52:17.731Z,13.90
2017-09-26T04:54:46.016Z,13.37
2017-09-26T04:57:14.299Z,12.60
2017-09-26T04:59:42.553Z,14.60
2017-09-26T05:02:10.820Z,14.20
2017-09-26T05:04:39.830Z,15.03
2017-09-26T05:07:08.107Z,15.20
2017-09-26T05:09:36.376Z,16.63
2017-09-26T05:12:05.419Z,15.33
2017-09-26T05:14:33.694Z,15.60
2017-09-26T05:17:01.958Z,14.30
2017-09-26T05:19:30.221Z,15.10
2017-09-26T05:21:59.255Z,16.30
2017-09-26T05:24:27.502Z,16.33
2017-09-26T05:26:55.814Z,14.90
2017-09-26T05:29:24.067Z,15.07
2017-09-26T05:31:52.335Z,14.53
2017-09-26T05:34:21.354Z,15.00
2017-09-26T05:36:49.619Z,15.67
2017-09-26T05:39:17.875Z,15.17
2017-09-26T05:41:47.214Z,14.13
2017-09-26T05:44:15.480Z,15.63
2017-09-26T05:46:44.515Z,14.80
2017-09-26T05:49:12.795Z,14.60
2017-09-26T05:51:41.064Z,15.03
2017-09-26T05:54:09.324Z,16.30
2017-09-26T05:56:38.362Z,15.23
2017-09-26T05:59:06.638Z,15.03
2017-09-26T06:01:34.898Z,14.77
2017-09-26T06:04:03.157Z,17.50
2017-09-26T06:06:32.184Z,17.03
2017-09-26T06:09:00.460Z,14.83
2017-09-26T06:11:28.715Z,16.33
2017-09-26T06:13:58.299Z,16.00
2017-09-26T06:16:26.826Z,15.60
2017-09-26T06:18:55.103Z,15.17
2017-09-26T06:21:24.150Z,17.30
2017-09-26T06:23:52.422Z,15.77
2017-09-26T06:26:20.674Z,16.17
2017-09-26T06:28:49.009Z,15.77
2017-09-26T06:31:17.263Z,18.67
2017-09-26T06:33:45.547Z,15.90
2017-09-26T06:36:13.853Z,16.73
2017-09-26T06:38:42.114Z,17.63
2017-09-26T06:41:10.384Z,16.93
2017-09-26T06:43:38.666Z,16.13
2017-09-26T06:46:06.935Z,16.87
2017-09-26T06:48:35.214Z,16.17
2017-09-26T06:51:03.482Z,17.07
2017-09-26T06:53:31.732Z,16.23
2017-09-26T06:56:00.005Z,16.60
2017-09-26T06:58:28.248Z,17.13
2017-09-26T07:00:56.516Z,16.53
2017-09-26T07:03:24.791Z,17.10
2017-09-26T07:05:53.062Z,17.87
2017-09-26T07:08:21.897Z,20.40
2017-09-26T07:10:50.159Z,18.87
2017-09-26T07:13:18.412Z,17.23
2017-09-26T07:15:46.685Z,17.07
2017-09-26T07:18:15.991Z,17.40
2017-09-26T07:20:45.055Z,18.13
2017-09-26T07:23:13.408Z,17.93
2017-09-26T07:25:41.680Z,18.27
2017-09-26T07:28:09.966Z,17.57
2017-09-26T07:30:38.243Z,18.30
2017-09-26T07:33:06.623Z,18.27
2017-09-26T07:35:34.875Z,17.27
2017-09-26T07:38:03.143Z,16.77
2017-09-26T07:40:32.155Z,15.43
2017-09-26T07:43:00.429Z,16.70
2017-09-26T07:45:29.600Z,17.73
2017-09-26T07:47:57.883Z,15.93
2017-09-26T07:50:26.207Z,16.43
2017-09-26T07:52:54.499Z,18.20
2017-09-26T07:55:22.772Z,17.13
2017-09-26T07:57:51.075Z,15.70
2017-09-26T08:00:19.328Z,19.10
2017-09-26T08:02:48.010Z,16.13
2017-09-26T08:05:16.783Z,16.23
2017-09-26T08:07:46.458Z,16.27
2017-09-26T08:10:14.926Z,16.10
2017-09-26T08:12:43.211Z,16.27
2017-09-26T08:15:11.487Z,15.60
2017-09-26T08:17:39.743Z,15.63
2017-09-26T08:20:08.042Z,14.83
2017-09-26T08:22:36.320Z,14.97
2017-09-26T08:25:04.589Z,15.40
2017-09-26T08:27:32.851Z,14.60
2017-09-26T08:30:01.872Z,15.93
2017-09-26T08:32:30.146Z,14.50
2017-09-26T08:34:58.403Z,15.23
2017-09-26T08:37:27.439Z,15.33
2017-09-26T08:39:55.738Z,15.83
2017-09-26T08:42:24.090Z,13.37
2017-09-26T08:44:52.476Z,14.30
2017-09-26T08:47:21.014Z,14.57
2017-09-26T08:49:49.402Z,15.40
2017-09-26T08:52:18.575Z,15.40
2017-09-26T08:54:46.872Z,15.20
2017-09-26T08:57:15.162Z,15.90
2017-09-26T08:59:43.504Z,17.30
2017-09-26T09:02:11.764Z,17.00
2017-09-26T09:04:40.036Z,15.87
2017-09-26T09:07:09.053Z,16.30
2017-09-26T09:09:39.117Z,15.80
2017-09-26T09:12:07.368Z,16.80
2017-09-26T09:14:35.626Z,15.47
2017-09-26T09:17:03.906Z,16.50
2017-09-26T09:19:32.240Z,15.67
2017-09-26T09:22:00.471Z,17.13
2017-09-26T09:24:28.738Z,16.87
2017-09-26T09:26:57.037Z,17.63
2017-09-26T09:29:25.448Z,16.13
2017-09-26T09:31:53.711Z,16.27
2017-09-26T09:34:21.994Z,16.50
2017-09-26T09:36:51.482Z,15.83
2017-09-26T09:39:21.218Z,16.83
2017-09-26T09:41:49.465Z,17.30
2017-09-26T09:44:17.740Z,17.80
2017-09-26T09:46:46.769Z,16.13
2017-09-26T09:49:15.032Z,17.40
2017-09-26T09:51:43.298Z,18.37
2017-09-26T09:54:12.336Z,18.20
2017-09-26T09:56:40.608Z,17.73
2017-09-26T09:59:08.898Z,17.53
2017-09-26T10:01:37.461Z,17.27
2017-09-26T10:04:05.708Z,17.73
2017-09-26T10:06:34.054Z,17.97
2017-09-26T10:09:02.301Z,16.90
2017-09-26T10:11:30.670Z,16.10
2017-09-26T10:13:58.977Z,14.60
2017-09-26T10:16:27.354Z,14.97
2017-09-26T10:18:55.606Z,15.20
2017-09-26T10:21:23.946Z,15.50
2017-09-26T10:23:52.207Z,15.77
2017-09-26T10:26:21.227Z,14.87
2017-09-26T10:28:49.677Z,13.80
2017-09-26T10:31:18.686Z,14.93
2017-09-26T10:33:46.954Z,13.57
2017-09-26T10:36:15.979Z,12.47
2017-09-26T10:38:44.241Z,13.30
2017-09-26T10:41:12.497Z,12.73
2017-09-26T10:43:40.769Z,12.10
2017-09-26T10:46:09.019Z,10.93
2017-09-26T10:48:37.287Z,10.97
2017-09-26T10:51:05.564Z,10.93
2017-09-26T10:53:33.841Z,13.23
2017-09-26T10:56:02.134Z,11.83
2017-09-26T10:58:30.407Z,11.23
2017-09-26T11:00:58.708Z,10.77
2017-09-26T11:03:27.000Z,10.87
2017-09-26T11:05:55.266Z,10.60
2017-09-26T11:08:23.520Z,10.43
2017-09-26T11:10:51.792Z,11.20
2017-09-26T11:13:20.095Z,11.20
2017-09-26T11:15:48.362Z,11.33
2017-09-26T11:18:17.519Z,11.20
2017-09-26T11:20:45.793Z,11.00
2017-09-26T11:23:14.050Z,10.10
2017-09-26T11:25:42.323Z,10.50
2017-09-26T11:28:10.607Z,10.70
2017-09-26T11:30:38.882Z,10.17
2017-09-26T11:33:07.165Z,11.80
2017-09-26T11:35:35.416Z,10.73
2017-09-26T11:38:03.686Z,11.70
2017-09-26T11:40:32.702Z,11.13
2017-09-26T11:43:00.970Z,11.80
2017-09-26T11:45:29.982Z,11.57
2017-09-26T11:47:58.245Z,11.73
2017-09-26T11:50:27.256Z,11.53
2017-09-26T11:52:55.591Z,12.03
2017-09-26T11:55:23.809Z,10.47
2017-09-26T11:57:53.064Z,11.23
2017-09-26T12:00:21.307Z,11.87
2017-09-26T12:02:49.606Z,12.50
2017-09-26T12:05:17.883Z,13.20
2017-09-26T12:07:46.415Z,12.03
2017-09-26T12:10:14.664Z,12.60
2017-09-26T12:12:42.916Z,12.00
2017-09-26T12:15:11.258Z,12.67
2017-09-26T12:17:39.603Z,13.60
2017-09-26T12:20:07.890Z,12.67
2017-09-26T12:22:36.131Z,12.70
2017-09-26T12:25:05.275Z,12.57
2017-09-26T12:27:33.562Z,12.73
2017-09-26T12:30:01.867Z,12.70
2017-09-26T12:32:30.215Z,12.03
2017-09-26T12:34:58.593Z,11.93
2017-09-26T12:37:26.892Z,12.97
2017-09-26T12:39:55.172Z,12.17
2017-09-26T12:42:23.409Z,13.50
2017-09-26T12:44:51.676Z,12.60
2017-09-26T12:47:20.726Z,13.47
2017-09-26T12:49:48.996Z,13.10
2017-09-26T12:52:17.246Z,13.13
2017-09-26T12:54:46.383Z,11.93
2017-09-26T12:57:14.684Z,12.90
2017-09-26T12:59:42.955Z,12.80
2017-09-26T13:02:11.208Z,12.70
2017-09-26T13:04:39.507Z,12.00
2017-09-26T13:07:07.757Z,14.07
2017-09-26T13:09:36.037Z,13.83
2017-09-26T13:12:05.051Z,12.10
2017-09-26T13:14:34.176Z,14.57
2017-09-26T13:17:02.427Z,14.27
2017-09-26T13:19:30.692Z,13.50
2017-09-26T13:21:59.720Z,13.80
2017-09-26T13:24:28.071Z,14.93
2017-09-26T13:26:57.087Z,11.50
2017-09-26T13:29:26.214Z,13.83
2017-09-26T13:31:54.475Z,13.67
2017-09-26T13:34:22.782Z,14.43
2017-09-26T13:36:51.050Z,12.50
2017-09-26T13:39:19.303Z,14.27
2017-09-26T13:41:48.330Z,13.10
2017-09-26T13:44:16.623Z,12.80
2017-09-26T13:46:44.897Z,13.50
2017-09-26T13:49:13.194Z,13.70
2017-09-26T13:51:41.453Z,13.60
2017-09-26T13:54:09.747Z,13.40
2017-09-26T13:56:38.025Z,13.20
2017-09-26T13:59:06.301Z,13.90
2017-09-26T14:01:34.599Z,13.07
2017-09-26T14:04:02.856Z,12.90
2017-09-26T14:06:31.119Z,12.80
2017-09-26T14:08:59.395Z,12.17
2017-09-26T14:11:28.418Z,14.77
2017-09-26T14:13:56.713Z,14.23
2017-09-26T14:16:25.361Z,13.40
2017-09-26T14:18:53.722Z,13.27
2017-09-26T14:21:22.378Z,15.07
2017-09-26T14:23:50.654Z,14.50
2017-09-26T14:26:18.910Z,14.83
2017-09-26T14:28:47.226Z,12.90
2017-09-26T14:31:15.545Z,12.90
2017-09-26T14:33:43.806Z,13.83
2017-09-26T14:36:12.054Z,13.20
2017-09-26T14:38:40.338Z,13.73
2017-09-26T14:41:08.608Z,11.97
2017-09-26T14:43:36.858Z,13.40
2017-09-26T14:46:05.909Z,12.50
2017-09-26T14:48:34.146Z,11.97
2017-09-26T14:51:03.174Z,13.07
2017-09-26T14:53:31.433Z,12.00
2017-09-26T14:55:59.706Z,12.20
2017-09-26T14:58:28.754Z,12.20
2017-09-26T15:00:57.015Z,12.73
2017-09-26T15:03:25.278Z,12.97
2017-09-26T15:05:53.543Z,12.03
2017-09-26T15:08:22.587Z,11.80
2017-09-26T15:10:50.863Z,12.17
2017-09-26T15:13:19.146Z,12.00
2017-09-26T15:15:47.413Z,12.70
2017-09-26T15:18:15.702Z,13.20
2017-09-26T15:20:43.977Z,11.83
2017-09-26T15:23:12.627Z,12.30
2017-09-26T15:25:41.682Z,10.80
2017-09-26T15:28:09.935Z,12.20
2017-09-26T15:30:38.205Z,12.60
2017-09-26T15:33:06.462Z,12.00
2017-09-26T15:35:35.624Z,11.17
2017-09-26T15:38:05.103Z,11.93
2017-09-26T15:40:33.411Z,11.47
2017-09-26T15:43:01.664Z,11.50
2017-09-26T15:45:30.058Z,12.00
2017-09-26T15:47:59.210Z,11.30
2017-09-26T15:50:27.532Z,11.13
2017-09-26T15:52:56.590Z,11.80
2017-09-26T15:55:25.112Z,12.03
2017-09-26T15:57:54.127Z,11.70
2017-09-26T16:00:22.420Z,12.83
2017-09-26T16:02:50.700Z,12.00
2017-09-26T16:05:19.031Z,11.20
2017-09-26T16:07:47.371Z,11.90
2017-09-26T16:10:15.655Z,11.40
2017-09-26T16:12:43.926Z,11.60
2017-09-26T16:15:12.176Z,11.00
2017-09-26T16:17:40.442Z,10.40
2017-09-26T16:20:09.546Z,11.63
2017-09-26T16:22:38.704Z,12.00
2017-09-26T16:25:06.971Z,13.40
2017-09-26T16:27:35.219Z,12.50
2017-09-26T16:30:03.471Z,13.47
2017-09-26T16:32:31.755Z,13.40
2017-09-26T16:35:00.003Z,13.40
2017-09-26T16:37:28.283Z,13.73
2017-09-26T16:39:56.531Z,14.83
2017-09-26T16:42:25.559Z,13.90
2017-09-26T16:44:53.832Z,15.07
2017-09-26T16:47:22.099Z,14.07
2017-09-26T16:49:50.403Z,14.90
2017-09-26T16:52:18.782Z,13.97
2017-09-26T16:54:47.033Z,15.60
2017-09-26T16:57:16.491Z,15.43
2017-09-26T16:59:44.727Z,14.53
2017-09-26T17:02:13.769Z,13.27
2017-09-26T17:04:42.066Z,14.23
2017-09-26T17:07:10.356Z,13.63
2017-09-26T17:09:38.599Z,13.37
2017-09-26T17:12:07.119Z,12.40
2017-09-26T17:14:35.378Z,14.10
2017-09-26T17:17:03.638Z,12.63
2017-09-26T17:19:31.896Z,13.50
2017-09-26T17:22:00.946Z,11.87
2017-09-26T17:24:29.221Z,10.93
2017-09-26T17:26:57.486Z,10.83
2017-09-26T17:29:25.750Z,12.00
2017-09-26T17:31:54.782Z,13.07
2017-09-26T17:34:23.043Z,12.90
2017-09-26T17:36:51.314Z,11.53
2017-09-26T17:39:19.570Z,13.70
2017-09-26T17:41:47.834Z,12.47
2017-09-26T17:44:16.080Z,12.70
2017-09-26T17:46:44.359Z,13.50
2017-09-26T17:49:12.610Z,11.50
2017-09-26T17:51:41.648Z,11.10
2017-09-26T17:54:09.912Z,12.77
2017-09-26T17:56:38.202Z,11.57
2017-09-26T17:59:06.472Z,13.50
2017-09-26T18:01:34.722Z,12.23
2017-09-26T18:04:03.771Z,12.40
2017-09-26T18:06:32.017Z,13.63
2017-09-26T18:09:01.059Z,12.17
2017-09-26T18:11:29.319Z,12.60
2017-09-26T18:13:57.621Z,12.57
2017-09-26T18:16:25.872Z,12.90
2017-09-26T18:18:54.145Z,11.30
2017-09-26T18:21:23.190Z,11.67
2017-09-26T18:23:51.546Z,12.47
2017-09-26T18:26:19.804Z,12.07
2017-09-26T18:28:48.070Z,14.43
2017-09-26T18:31:17.099Z,13.70
2017-09-26T18:33:45.398Z,13.00
2017-09-26T18:36:13.686Z,11.87
2017-09-26T18:38:41.954Z,12.70
2017-09-26T18:41:10.269Z,13.13
2017-09-26T18:43:38.536Z,14.10
2017-09-26T18:46:06.791Z,11.07
2017-09-26T18:48:35.084Z,12.73
2017-09-26T18:51:03.384Z,11.70
2017-09-26T18:53:31.750Z,12.20
2017-09-26T18:56:00.015Z,13.17
2017-09-26T18:58:28.311Z,12.43
2017-09-26T19:00:56.699Z,12.80
2017-09-26T19:03:25.104Z,12.33
2017-09-26T19:05:53.355Z,11.97
2017-09-26T19:08:21.923Z,12.90
2017-09-26T19:10:50.958Z,11.87
2017-09-26T19:13:19.218Z,11.70
2017-09-26T19:15:47.501Z,11.83
2017-09-26T19:18:15.768Z,11.83
2017-09-26T19:20:44.024Z,13.47
2017-09-26T19:23:13.051Z,12.27
2017-09-26T19:25:41.349Z,11.53
2017-09-26T19:28:09.606Z,12.03
2017-09-26T19:30:37.937Z,12.20
2017-09-26T19:33:06.185Z,11.97
2017-09-26T19:35:34.450Z,11.77
2017-09-26T19:38:03.494Z,11.57
2017-09-26T19:40:31.815Z,13.20
2017-09-26T19:43:00.829Z,11.73
2017-09-26T19:45:29.909Z,11.50
2017-09-26T19:47:58.937Z,12.60
2017-09-26T19:50:27.212Z,11.63
2017-09-26T19:52:55.519Z,11.43
2017-09-26T19:55:23.803Z,11.60
2017-09-26T19:57:52.082Z,11.97
2017-09-26T20:00:20.348Z,11.27
2017-09-26T20:02:48.710Z,10.50
2017-09-26T20:05:16.982Z,11.83
2017-09-26T20:07:45.991Z,11.50
2017-09-26T20:10:14.320Z,12.03
2017-09-26T20:12:42.578Z,11.30
2017-09-26T20:15:10.845Z,10.43
2017-09-26T20:17:39.094Z,11.87
2017-09-26T20:20:08.157Z,11.07
2017-09-26T20:22:36.412Z,10.57
2017-09-26T20:25:04.687Z,12.00
2017-09-26T20:27:33.703Z,10.80
2017-09-26T20:30:01.976Z,11.87
2017-09-26T20:32:30.229Z,11.47
2017-09-26T20:34:59.262Z,11.27
2017-09-26T20:37:27.530Z,9.57
2017-09-26T20:39:55.847Z,10.70
2017-09-26T20:42:24.177Z,10.40
2017-09-26T20:44:53.312Z,10.83
2017-09-26T20:47:21.698Z,10.77
2017-09-26T20:49:49.969Z,10.27
2017-09-26T20:52:18.223Z,10.17
2017-09-26T20:54:47.254Z,10.53
2017-09-26T20:57:15.500Z,9.53
2017-09-26T20:59:44.532Z,10.00
2017-09-26T21:02:12.826Z,10.53
2017-09-26T21:04:41.066Z,10.40
2017-09-26T21:07:09.343Z,10.37
2017-09-26T21:09:37.642Z,10.47
2017-09-26T21:12:05.906Z,12.20
2017-09-26T21:14:34.961Z,10.73
2017-09-26T21:17:04.040Z,10.43
2017-09-26T21:19:32.319Z,11.47
2017-09-26T21:22:00.584Z,11.03
2017-09-26T21:24:28.891Z,12.00
2017-09-26T21:26:57.272Z,10.97
2017-09-26T21:29:25.532Z,11.53
2017-09-26T21:31:53.798Z,11.50
2017-09-26T21:34:22.236Z,11.40
2017-09-26T21:36:50.504Z,10.47
2017-09-26T21:39:18.772Z,12.27
2017-09-26T21:41:47.046Z,11.10
2017-09-26T21:44:15.340Z,12.00
2017-09-26T21:46:43.613Z,10.87
2017-09-26T21:49:11.863Z,11.20
2017-09-26T21:51:40.133Z,12.37
2017-09-26T21:54:09.206Z,10.93
2017-09-26T21:56:38.231Z,10.53
2017-09-26T21:59:07.258Z,10.23
2017-09-26T22:01:35.518Z,11.93
2017-09-26T22:04:04.544Z,11.70
2017-09-26T22:06:32.821Z,12.03
2017-09-26T22:09:01.250Z,11.57
2017-09-26T22:11:30.322Z,11.97
2017-09-26T22:13:58.613Z,12.10
2017-09-26T22:16:26.895Z,11.37
2017-09-26T22:18:55.906Z,12.30
2017-09-26T22:21:24.235Z,11.20
2017-09-26T22:23:52.878Z,12.00
2017-09-26T22:26:21.125Z,11.70
2017-09-26T22:28:49.472Z,11.90
2017-09-26T22:31:17.729Z,11.43
2017-09-26T22:33:46.057Z,12.80
2017-09-26T22:36:14.416Z,12.80
2017-09-26T22:38:42.696Z,11.60
2017-09-26T22:41:10.989Z,12.07
2017-09-26T22:43:39.253Z,10.30
2017-09-26T22:46:07.527Z,12.57
2017-09-26T22:48:36.558Z,10.80
2017-09-26T22:51:04.893Z,11.20
2017-09-26T22:53:33.911Z,11.13
2017-09-26T22:56:02.165Z,12.20
2017-09-26T22:58:30.480Z,11.63
2017-09-26T23:00:58.777Z,11.90
2017-09-26T23:03:27.855Z,10.70
2017-09-26T23:05:56.131Z,12.30
2017-09-26T23:08:24.395Z,10.97
2017-09-26T23:10:52.655Z,12.60
2017-09-26T23:13:21.826Z,11.67
2017-09-26T23:15:50.071Z,12.40
2017-09-26T23:18:18.378Z,11.60
2017-09-26T23:20:47.663Z,10.13
2017-09-26T23:23:15.949Z,11.47
2017-09-26T23:25:44.222Z,12.40
2017-09-26T23:28:12.470Z,11.20
2017-09-26T23:30:41.608Z,12.23
2017-09-26T23:33:09.883Z,12.53
2017-09-26T23:35:38.154Z,11.60
2017-09-26T23:38:06.464Z,12.47
2017-09-26T23:40:34.732Z,12.07
2017-09-26T23:43:02.988Z,11.90
2017-09-26T23:45:31.258Z,12.33
2017-09-26T23:48:00.303Z,13.13
2017-09-26T23:50:28.574Z,11.30
2017-09-26T23:52:57.671Z,12.40
2017-09-26T23:55:25.944Z,11.40
2017-09-26T23:57:54.195Z,11.27
